Time;durP1;ratioP1;P1;durP2;ratioP2;P2;SDS_P1;SDS_P2;PMS_P1;PMS_P2;Temp;Humidity;BMP_temperature;BMP_pressure;BME280_temperature;BME280_humidity;BME280_pressure;Samples;Min_cycle;Max_cycle;Signal;HPM_P1;HPM_P2
2024/02/10 00:01:48;;;;;;;48.00;30.60;;;410.10;1740.80;;;;;;4835368;29;20026;-76
2024/02/10 00:04:17;;;;;;;70.43;40.33;;;410.10;1740.80;;;;;;4838038;29;20048;-76
2024/02/10 00:06:45;;;;;;;13.00;7.38;;;410.10;1740.80;;;;;;4830954;29;20093;-76
2024/02/10 00:09:13;;;;;;;9.38;5.15;;;410.20;1766.40;;;;;;4837310;29;20038;-76
2024/02/10 00:11:38;;;;;;;20.42;11.85;;;410.00;1766.40;;;;;;4838530;29;20022;-76
2024/02/10 00:14:08;;;;;;;69.18;40.63;;;410.00;1740.80;;;;;;4838566;29;20033;-76
2024/02/10 00:16:34;;;;;;;13.50;5.85;;;410.00;1766.40;;;;;;4838682;29;20040;-76
2024/02/10 00:19:08;;;;;;;12.70;6.63;;;409.90;1792.00;;;;;;4838156;29;20473;-76
2024/02/10 00:21:34;;;;;;;16.90;8.57;;;410.00;1740.80;;;;;;4835649;29;20040;-80
2024/02/10 00:24:00;;;;;;;32.83;17.58;;;410.00;1766.40;;;;;;4832635;29;20033;-76
2024/02/10 00:26:25;;;;;;;16.08;8.07;;;410.00;1766.40;;;;;;4838396;29;20109;-75
2024/02/10 00:28:55;;;;;;;26.60;17.60;;;410.00;1792.00;;;;;;4829303;29;20041;-80
2024/02/10 00:31:24;;;;;;;11.95;7.93;;;410.00;1792.00;;;;;;4826211;29;20021;-74
2024/02/10 00:33:51;;;;;;;13.30;7.78;;;410.00;1766.40;;;;;;4837988;29;20032;-77
2024/02/10 00:36:17;;;;;;;30.33;16.05;;;410.00;1766.40;;;;;;4834385;29;20039;-80
2024/02/10 00:38:44;;;;;;;21.50;11.27;;;410.00;1766.40;;;;;;4823833;29;20069;-76
2024/02/10 00:41:10;;;;;;;22.73;12.80;;;410.00;1766.40;;;;;;4825587;29;20022;-78
2024/02/10 00:43:42;;;;;;;17.55;10.55;;;410.00;1766.40;;;;;;4833420;29;20031;-79
2024/02/10 00:46:17;;;;;;;20.50;9.02;;;410.20;1766.40;;;;;;4833154;29;20481;-76
2024/02/10 00:48:47;;;;;;;7.82;5.07;;;410.00;1766.40;;;;;;4837002;29;20045;-81
2024/02/10 00:51:14;;;;;;;14.20;7.13;;;410.00;1766.40;;;;;;4832549;29;20022;-77
2024/02/10 00:53:40;;;;;;;21.70;9.85;;;409.90;1766.40;;;;;;4837610;29;20565;-76
2024/02/10 00:56:08;;;;;;;13.05;6.40;;;409.90;1766.40;;;;;;4839736;29;20473;-76
2024/02/10 00:58:35;;;;;;;9.57;5.75;;;409.90;1792.00;;;;;;4841825;29;20116;-76
2024/02/10 01:01:00;;;;;;;15.43;7.78;;;409.80;1792.00;;;;;;4825158;29;20106;-76
2024/02/10 01:03:27;;;;;;;16.33;8.75;;;409.70;1792.00;;;;;;4842016;29;20026;-76
2024/02/10 01:05:55;;;;;;;13.00;5.72;;;409.70;1792.00;;;;;;4841802;29;20026;-76
2024/02/10 01:08:21;;;;;;;13.32;5.90;;;409.70;1792.00;;;;;;4841888;29;20041;-76
2024/02/10 01:10:47;;;;;;;12.63;5.43;;;409.70;1792.00;;;;;;4843452;29;20101;-76
2024/02/10 01:13:13;;;;;;;11.75;6.68;;;409.70;1792.00;;;;;;4842946;29;20105;-76
2024/02/10 01:15:39;;;;;;;12.80;5.80;;;409.70;1792.00;;;;;;4843552;29;20025;-76
2024/02/10 01:18:05;;;;;;;11.88;7.20;;;409.70;1792.00;;;;;;4843440;29;20057;-77
2024/02/10 01:20:31;;;;;;;10.80;5.65;;;409.70;1792.00;;;;;;4842418;29;20106;-76
2024/02/10 01:22:57;;;;;;;11.75;5.93;;;409.60;1817.60;;;;;;4841012;29;20078;-76
2024/02/10 01:25:29;;;;;;;15.55;8.55;;;409.60;1817.60;;;;;;4841460;29;20030;-76
2024/02/10 01:27:55;;;;;;;22.35;13.55;;;409.60;1843.20;;;;;;4841127;29;20033;-76
2024/02/10 01:30:20;;;;;;;50.63;30.27;;;384.90;1817.60;;;;;;4841466;29;20135;-76
2024/02/10 01:32:47;;;;;;;17.35;10.82;;;384.90;1792.00;;;;;;4840885;29;20022;-77
2024/02/10 01:35:18;;;;;;;14.48;9.73;;;384.90;1792.00;;;;;;4841227;29;20079;-79
2024/02/10 01:37:44;;;;;;;12.68;8.65;;;384.90;1792.00;;;;;;4840908;29;20022;-77
2024/02/10 01:40:11;;;;;;;13.73;6.97;;;384.90;1792.00;;;;;;4841223;29;20482;-76
2024/02/10 01:42:37;;;;;;;13.35;7.40;;;384.70;1792.00;;;;;;4841094;29;20033;-76
2024/02/10 01:45:08;;;;;;;17.30;8.25;;;384.80;1817.60;;;;;;4841085;29;20026;-76
2024/02/10 01:47:37;;;;;;;11.80;5.90;;;384.70;1843.20;;;;;;4840680;29;20034;-77
2024/02/10 01:50:05;;;;;;;24.05;15.63;;;384.70;1817.60;;;;;;4840928;29;20022;-76
2024/02/10 01:52:38;;;;;;;14.43;8.43;;;384.90;1817.60;;;;;;4823761;29;20034;-78
2024/02/10 01:55:09;;;;;;;14.63;6.45;;;384.80;1817.60;;;;;;4840538;29;20310;-78
2024/02/10 01:57:35;;;;;;;16.40;10.00;;;384.80;1817.60;;;;;;4840919;29;20072;-76
2024/02/10 02:00:06;;;;;;;25.02;15.75;;;384.80;1817.60;;;;;;4840252;29;20413;-77
2024/02/10 02:02:33;;;;;;;17.67;11.35;;;384.70;1817.60;;;;;;4840323;29;20026;-76
2024/02/10 02:05:03;;;;;;;20.52;9.40;;;384.80;1817.60;;;;;;4840411;29;20061;-77
2024/02/10 02:07:30;;;;;;;15.35;7.88;;;384.90;1817.60;;;;;;4839445;29;20485;-76
2024/02/10 02:10:00;;;;;;;13.98;5.93;;;384.90;1792.00;;;;;;4823855;29;20032;-76
2024/02/10 02:12:27;;;;;;;65.90;38.35;;;384.90;1792.00;;;;;;4840629;29;20061;-76
2024/02/10 02:14:54;;;;;;;11.32;7.70;;;384.90;1817.60;;;;;;4841651;29;20536;-76
2024/02/10 02:17:20;;;;;;;15.07;7.30;;;384.90;1817.60;;;;;;4840183;29;20030;-77
2024/02/10 02:19:46;;;;;;;16.75;10.80;;;384.80;1817.60;;;;;;4840131;29;20022;-76
2024/02/10 02:22:13;;;;;;;9.63;4.80;;;384.80;1817.60;;;;;;4840388;29;20042;-77
2024/02/10 02:24:39;;;;;;;11.55;5.25;;;384.80;1817.60;;;;;;4840156;29;20126;-76
2024/02/10 02:27:08;;;;;;;12.73;6.22;;;384.90;1817.60;;;;;;4840431;29;20120;-76
2024/02/10 02:29:35;;;;;;;33.08;20.42;;;384.80;1817.60;;;;;;4839943;29;20026;-76
2024/02/10 02:32:00;;;;;;;8.52;5.47;;;384.70;1843.20;;;;;;4840184;29;20030;-76
2024/02/10 02:34:33;;;;;;;11.60;7.47;;;384.70;1843.20;;;;;;4839897;29;20105;-76
2024/02/10 02:37:02;;;;;;;13.17;7.90;;;384.60;1843.20;;;;;;4840103;29;20033;-76
2024/02/10 02:39:30;;;;;;;19.20;13.65;;;384.70;1843.20;;;;;;4839937;29;20118;-79
2024/02/10 02:41:59;;;;;;;18.63;12.50;;;384.70;1843.20;;;;;;4840177;29;20033;-76
2024/02/10 02:44:28;;;;;;;10.48;5.95;;;384.80;1843.20;;;;;;4840276;29;20473;-77
2024/02/10 02:46:57;;;;;;;16.17;7.43;;;384.70;1843.20;;;;;;4839985;29;20050;-76
2024/02/10 02:49:23;;;;;;;20.70;7.68;;;384.90;1843.20;;;;;;4827585;29;20105;-75
2024/02/10 02:51:54;;;;;;;16.13;8.07;;;384.80;1843.20;;;;;;4835075;29;20109;-76
2024/02/10 02:54:20;;;;;;;9.07;5.10;;;384.70;1868.80;;;;;;4839450;29;20401;-76
2024/02/10 02:56:50;;;;;;;15.48;5.45;;;384.80;1843.20;;;;;;4839790;29;20029;-76
2024/02/10 02:59:16;;;;;;;9.18;4.25;;;384.80;1843.20;;;;;;4839786;29;20037;-76
2024/02/10 03:01:42;;;;;;;9.77;5.25;;;384.90;1843.20;;;;;;4839672;29;20034;-76
2024/02/10 03:04:08;;;;;;;7.53;4.63;;;384.80;1843.20;;;;;;4839579;29;20040;-76
2024/02/10 03:06:34;;;;;;;15.40;7.25;;;384.70;1843.20;;;;;;4839665;29;20032;-76
2024/02/10 03:09:00;;;;;;;10.23;5.55;;;384.70;1868.80;;;;;;4839537;29;20052;-75
2024/02/10 03:11:27;;;;;;;7.95;4.35;;;384.70;1868.80;;;;;;4839562;29;20026;-79
2024/02/10 03:13:53;;;;;;;20.88;12.20;;;384.70;1868.80;;;;;;4839607;29;20132;-76
2024/02/10 03:16:19;;;;;;;10.65;6.07;;;384.70;1868.80;;;;;;4822741;29;20022;-75
2024/02/10 03:18:48;;;;;;;13.70;5.93;;;384.50;1868.80;;;;;;4838912;29;20106;-76
2024/02/10 03:21:15;;;;;;;12.80;7.32;;;384.60;1868.80;;;;;;4839018;29;20026;-76
2024/02/10 03:23:41;;;;;;;14.82;7.95;;;384.60;1894.40;;;;;;4839038;29;20042;-77
2024/02/10 03:26:08;;;;;;;10.88;6.32;;;384.50;1894.40;;;;;;4839027;29;20370;-76
2024/02/10 03:28:33;;;;;;;11.00;6.00;;;384.40;1894.40;;;;;;4839238;29;20034;-77
2024/02/10 03:31:03;;;;;;;17.20;8.90;;;384.40;1920.00;;;;;;4838934;29;20041;-76
2024/02/10 03:33:32;;;;;;;13.50;5.07;;;384.30;1920.00;;;;;;4838886;29;20422;-76
2024/02/10 03:35:59;;;;;;;14.25;5.60;;;384.40;1920.00;;;;;;4838823;29;20049;-75
2024/02/10 03:38:24;;;;;;;9.73;6.15;;;384.30;1920.00;;;;;;4839396;29;20034;-76
2024/02/10 03:40:51;;;;;;;12.98;5.60;;;384.30;1920.00;;;;;;4838796;29;20029;-76
2024/02/10 03:43:26;;;;;;;12.45;6.57;;;384.30;1920.00;;;;;;4839050;29;20030;-76
2024/02/10 03:45:52;;;;;;;11.27;6.13;;;384.10;1945.60;;;;;;4839064;29;20022;-77
2024/02/10 03:48:18;;;;;;;14.00;6.57;;;384.10;1945.60;;;;;;4838625;29;20038;-76
2024/02/10 03:50:44;;;;;;;14.10;5.95;;;384.00;1945.60;;;;;;4822445;29;20083;-76
2024/02/10 03:53:10;;;;;;;8.13;5.43;;;384.10;1945.60;;;;;;4838444;29;20162;-77
2024/02/10 03:55:38;;;;;;;13.10;6.32;;;384.10;1945.60;;;;;;4838907;29;20023;-76
2024/02/10 03:58:05;;;;;;;13.90;6.88;;;359.30;1971.20;;;;;;4838930;29;20030;-76
2024/02/10 04:00:36;;;;;;;13.15;6.28;;;359.30;1971.20;;;;;;4838680;29;20022;-80
2024/02/10 04:03:02;;;;;;;14.30;6.85;;;359.30;1971.20;;;;;;4838539;29;20041;-78
2024/02/10 04:05:34;;;;;;;8.85;5.35;;;359.20;1996.80;;;;;;4826623;29;20154;-76
2024/02/10 04:08:03;;;;;;;14.10;6.18;;;359.20;1971.20;;;;;;4838172;29;20044;-77
2024/02/10 04:10:29;;;;;;;14.57;5.00;;;359.30;1971.20;;;;;;4838523;29;20018;-79
2024/02/10 04:12:55;;;;;;;6.53;3.65;;;359.30;1971.20;;;;;;4838585;29;20062;-77
2024/02/10 04:15:21;;;;;;;7.57;4.03;;;384.10;1945.60;;;;;;4838340;29;20053;-77
2024/02/10 04:17:53;;;;;;;5.00;3.10;;;384.30;1945.60;;;;;;4838441;29;20434;-77
2024/02/10 04:20:20;;;;;;;7.20;4.50;;;384.40;1945.60;;;;;;4838450;29;20102;-79
2024/02/10 04:22:55;;;;;;;10.50;4.50;;;384.50;1920.00;;;;;;4840369;29;20026;-80
2024/02/10 04:25:21;;;;;;;9.13;4.10;;;384.60;1945.60;;;;;;4847180;29;20034;-77
2024/02/10 04:27:47;;;;;;;7.40;4.40;;;384.70;1945.60;;;;;;4821625;29;20093;-77
2024/02/10 04:30:13;;;;;;;9.27;3.65;;;384.70;1945.60;;;;;;4838185;29;20101;-76
2024/02/10 04:32:46;;;;;;;5.88;2.80;;;384.70;1945.60;;;;;;4838305;29;20022;-79
2024/02/10 04:35:14;;;;;;;5.07;2.90;;;384.70;1945.60;;;;;;4838287;29;20385;-77
2024/02/10 04:37:51;;;;;;;7.82;3.30;;;384.80;1945.60;;;;;;4837852;29;20034;-77
2024/02/10 04:40:23;;;;;;;8.52;3.58;;;384.80;1920.00;;;;;;4838458;29;20427;-77
2024/02/10 04:42:52;;;;;;;6.60;4.70;;;384.80;1920.00;;;;;;4838224;29;20036;-76
2024/02/10 04:45:33;;;;;;;9.73;3.58;;;384.90;1945.60;;;;;;4837823;29;20501;-77
2024/02/10 04:48:00;;;;;;;5.95;3.25;;;384.70;1945.60;;;;;;4837796;29;20094;-76
2024/02/10 04:50:28;;;;;;;4.28;2.92;;;384.70;1945.60;;;;;;4838200;29;20030;-77
2024/02/10 04:52:55;;;;;;;8.65;3.45;;;384.70;1945.60;;;;;;4847005;29;20040;-77
2024/02/10 04:55:21;;;;;;;6.07;3.00;;;384.70;1945.60;;;;;;4841015;29;20026;-77
2024/02/10 04:57:49;;;;;;;8.10;3.35;;;384.60;1971.20;;;;;;4838195;29;20506;-77
2024/02/10 05:00:16;;;;;;;6.20;4.00;;;384.70;1971.20;;;;;;4838154;29;20026;-76
2024/02/10 05:02:44;;;;;;;10.13;3.67;;;384.70;1971.20;;;;;;4838436;29;20026;-77
2024/02/10 05:05:10;;;;;;;7.22;3.25;;;384.70;1971.20;;;;;;4838913;29;20018;-77
2024/02/10 05:07:58;;;;;;;8.45;3.47;;;384.80;1971.20;;;;;;4839195;29;20121;-79
2024/02/10 05:10:25;;;;;;;6.90;3.00;;;384.70;1971.20;;;;;;4839971;29;20495;-76
2024/02/10 05:12:54;;;;;;;6.55;3.35;;;384.70;1971.20;;;;;;4839107;29;20542;-77
2024/02/10 05:15:22;;;;;;;5.53;2.95;;;384.80;1971.20;;;;;;4838219;29;20066;-76
2024/02/10 05:17:50;;;;;;;7.38;3.20;;;384.90;1971.20;;;;;;4837339;29;20041;-76
2024/02/10 05:20:20;;;;;;;8.57;3.03;;;384.80;1971.20;;;;;;4838502;29;20029;-75
2024/02/10 05:22:50;;;;;;;6.60;2.97;;;384.80;1971.20;;;;;;4837502;29;20037;-76
2024/02/10 05:25:21;;;;;;;5.45;3.08;;;384.90;1971.20;;;;;;4837845;29;20086;-76
2024/02/10 05:27:50;;;;;;;6.40;3.83;;;384.90;1971.20;;;;;;4837539;29;20034;-76
2024/02/10 05:30:24;;;;;;;5.25;3.13;;;384.80;1971.20;;;;;;4837361;29;20032;-76
2024/02/10 05:32:55;;;;;;;4.93;3.90;;;384.70;1971.20;;;;;;4837101;29;20029;-75
2024/02/10 05:35:21;;;;;;;8.32;3.35;;;384.70;1971.20;;;;;;4821194;29;20373;-75
2024/02/10 05:37:56;;;;;;;11.48;5.40;;;384.70;1971.20;;;;;;4837091;29;20034;-75
2024/02/10 05:40:23;;;;;;;6.50;3.28;;;384.80;1971.20;;;;;;4837633;29;20055;-74
2024/02/10 05:42:50;;;;;;;5.38;3.28;;;384.90;1971.20;;;;;;4837827;29;20041;-76
2024/02/10 05:45:20;;;;;;;10.32;6.10;;;384.70;1971.20;;;;;;4841061;29;20055;-75
2024/02/10 05:47:52;;;;;;;11.85;7.38;;;384.60;1971.20;;;;;;4828855;29;20030;-75
2024/02/10 05:50:22;;;;;;;19.40;9.13;;;384.60;1996.80;;;;;;4840459;29;20054;-76
2024/02/10 05:52:52;;;;;;;18.70;9.00;;;384.60;1971.20;;;;;;4839935;29;20505;-74
2024/02/10 05:55:21;;;;;;;25.15;14.82;;;384.60;1971.20;;;;;;4840198;29;20057;-80
2024/02/10 05:57:49;;;;;;;33.85;19.75;;;384.60;1996.80;;;;;;4840659;29;20026;-76
2024/02/10 06:00:16;;;;;;;23.80;13.00;;;384.60;1996.80;;;;;;4840184;29;20078;-76
2024/02/10 06:02:42;;;;;;;15.77;7.40;;;384.60;1971.20;;;;;;4840451;29;20026;-75
2024/02/10 06:05:14;;;;;;;110.10;74.53;;;384.60;1996.80;;;;;;4840445;29;20022;-76
2024/02/10 06:07:44;;;;;;;18.35;9.43;;;384.60;1971.20;;;;;;4840278;29;20045;-78
2024/02/10 06:10:15;;;;;;;6.80;4.28;;;384.70;1971.20;;;;;;4840222;29;20018;-79
2024/02/10 06:12:45;;;;;;;7.72;4.90;;;384.70;1971.20;;;;;;4840048;29;20030;-77
2024/02/10 06:15:12;;;;;;;4.78;2.97;;;384.60;1996.80;;;;;;4840291;29;20033;-78
2024/02/10 06:17:42;;;;;;;7.15;3.05;;;384.60;1996.80;;;;;;4839603;29;20022;-77
2024/02/10 06:20:14;;;;;;;6.10;3.05;;;384.70;1996.80;;;;;;4840300;29;20014;-76
2024/02/10 06:22:41;;;;;;;10.75;3.88;;;384.80;1996.80;;;;;;4839664;29;20034;-76
2024/02/10 06:25:11;;;;;;;6.78;3.88;;;384.80;1996.80;;;;;;4839905;29;20026;-76
2024/02/10 06:27:47;;;;;;;6.10;3.28;;;384.70;1996.80;;;;;;4839608;29;20061;-76
2024/02/10 06:30:16;;;;;;;5.68;3.30;;;384.90;1971.20;;;;;;4839909;29;20026;-76
2024/02/10 06:32:46;;;;;;;6.75;3.45;;;384.90;1996.80;;;;;;4839706;29;20025;-75
2024/02/10 06:35:13;;;;;;;8.95;3.38;;;409.60;2022.40;;;;;;4831777;29;20097;-77
2024/02/10 06:37:40;;;;;;;6.45;3.80;;;409.60;2022.40;;;;;;4836408;29;20404;-76
2024/02/10 06:40:08;;;;;;;9.32;3.78;;;409.70;1996.80;;;;;;4839882;29;20026;-76
2024/02/10 06:42:37;;;;;;;11.30;5.63;;;409.70;1996.80;;;;;;4839701;29;20093;-77
2024/02/10 06:45:13;;;;;;;29.02;18.52;;;409.70;1996.80;;;;;;4839872;29;20037;-77
2024/02/10 06:47:40;;;;;;;24.67;13.77;;;409.80;1971.20;;;;;;4839441;29;20147;-77
2024/02/10 06:50:06;;;;;;;13.88;7.80;;;409.90;1971.20;;;;;;4839738;29;20037;-77
2024/02/10 06:52:34;;;;;;;6.93;3.97;;;410.00;1971.20;;;;;;4838982;29;20048;-77
2024/02/10 06:55:01;;;;;;;7.95;3.70;;;410.00;1971.20;;;;;;4832338;29;20130;-81
2024/02/10 06:57:27;;;;;;;5.40;3.53;;;410.20;1971.20;;;;;;4827502;29;20046;-76
2024/02/10 06:59:54;;;;;;;6.70;3.85;;;410.20;1945.60;;;;;;4839491;29;20097;-76
2024/02/10 07:02:20;;;;;;;5.88;3.50;;;410.30;1945.60;;;;;;4839070;29;20030;-79
2024/02/10 07:04:52;;;;;;;7.55;4.03;;;410.30;1945.60;;;;;;4829293;29;20442;-75
2024/02/10 07:07:19;;;;;;;10.20;4.10;;;410.30;1945.60;;;;;;4827206;29;20034;-76
2024/02/10 07:09:45;;;;;;;11.27;3.45;;;410.30;1971.20;;;;;;4838793;29;20101;-77
2024/02/10 07:12:11;;;;;;;6.75;4.40;;;410.30;1945.60;;;;;;4839260;29;20105;-75
2024/02/10 07:14:38;;;;;;;11.23;3.60;;;410.30;1945.60;;;;;;4839285;29;20030;-76
2024/02/10 07:17:04;;;;;;;9.68;3.70;;;410.40;1945.60;;;;;;4839163;29;20024;-76
2024/02/10 07:19:35;;;;;;;33.60;16.48;;;410.40;1945.60;;;;;;4838698;29;20113;-76
2024/02/10 07:22:01;;;;;;;9.13;5.38;;;410.40;1945.60;;;;;;4838788;29;20384;-77
2024/02/10 07:24:27;;;;;;;7.50;2.80;;;410.50;1945.60;;;;;;4839003;29;20090;-76
2024/02/10 07:26:56;;;;;;;19.17;11.52;;;410.50;1945.60;;;;;;4836584;29;20641;-81
2024/02/10 07:29:24;;;;;;;18.92;9.63;;;435.30;1945.60;;;;;;4829320;29;20117;-70
2024/02/10 07:31:50;;;;;;;13.95;10.52;;;435.30;1920.00;;;;;;4830203;29;20451;-76
2024/02/10 07:34:17;;;;;;;6.57;3.58;;;435.40;1920.00;;;;;;4838808;29;20037;-71
2024/02/10 07:36:43;;;;;;;9.60;5.32;;;435.40;1920.00;;;;;;4839199;29;20054;-79
2024/02/10 07:39:09;;;;;;;10.55;3.75;;;435.60;1920.00;;;;;;4838364;29;20046;-71
2024/02/10 07:41:39;;;;;;;8.48;4.90;;;435.60;1920.00;;;;;;4839127;29;20029;-69
2024/02/10 07:44:12;;;;;;;39.95;29.10;;;435.60;1920.00;;;;;;4826645;29;20033;-71
2024/02/10 07:46:38;;;;;;;11.00;5.95;;;435.60;1920.00;;;;;;4838678;29;20057;-70
2024/02/10 07:49:07;;;;;;;12.23;4.75;;;435.80;1920.00;;;;;;4838385;29;20072;-71
2024/02/10 07:51:33;;;;;;;12.80;6.80;;;435.80;1920.00;;;;;;4838515;29;20022;-70
2024/02/10 07:53:59;;;;;;;10.52;5.47;;;435.80;1920.00;;;;;;4838074;29;20462;-71
2024/02/10 07:56:29;;;;;;;9.68;3.90;;;435.90;1920.00;;;;;;4838699;29;20091;-71
2024/02/10 07:58:59;;;;;;;17.38;4.25;;;435.80;1920.00;;;;;;4832092;29;20033;-71
2024/02/10 08:01:27;;;;;;;11.68;4.68;;;435.80;1894.40;;;;;;4827327;29;20026;-70
2024/02/10 08:03:54;;;;;;;9.15;4.00;;;435.80;1894.40;;;;;;4826868;29;20071;-70
2024/02/10 08:06:30;;;;;;;9.75;6.63;;;435.80;1894.40;;;;;;4849608;29;20022;-71
2024/02/10 08:08:57;;;;;;;9.55;6.45;;;435.90;1894.40;;;;;;4829069;29;20053;-75
2024/02/10 08:11:27;;;;;;;17.40;5.50;;;436.10;1894.40;;;;;;4838117;29;20033;-75
2024/02/10 08:13:53;;;;;;;10.45;5.60;;;460.80;1894.40;;;;;;4826575;29;20034;-74
2024/02/10 08:16:21;;;;;;;12.80;6.88;;;460.90;1894.40;;;;;;4820702;29;20046;-76
2024/02/10 08:18:49;;;;;;;9.23;4.32;;;461.00;1868.80;;;;;;4822816;29;20971;-75
2024/02/10 08:21:17;;;;;;;13.02;6.43;;;461.20;1868.80;;;;;;4828674;29;20222;-76
2024/02/10 08:23:49;;;;;;;11.75;4.72;;;461.20;1868.80;;;;;;4824688;29;20064;-84
2024/02/10 08:26:17;;;;;;;23.70;10.27;;;461.50;1843.20;;;;;;4832481;29;20094;-75
2024/02/10 08:28:48;;;;;;;9.77;4.88;;;461.50;1843.20;;;;;;4832224;29;20066;-83
2024/02/10 08:31:15;;;;;;;17.42;11.15;;;486.40;1817.60;;;;;;4824043;29;20037;-80
2024/02/10 08:33:44;;;;;;;11.82;4.28;;;;;;;;;;4838028;29;20053;-74
2024/02/10 08:36:13;;;;;;;15.35;9.55;;;486.50;1792.00;;;;;;4835389;29;20023;-81
2024/02/10 08:38:40;;;;;;;10.77;4.20;;;461.60;1792.00;;;;;;4837674;29;20038;-81
2024/02/10 08:41:05;;;;;;;19.02;10.00;;;461.70;1817.60;;;;;;4838051;29;21433;-82
2024/02/10 08:43:31;;;;;;;14.15;8.05;;;461.70;1817.60;;;;;;4838022;29;20030;-82
2024/02/10 08:46:00;;;;;;;32.85;15.65;;;461.70;1817.60;;;;;;4838064;29;20030;-75
2024/02/10 08:48:26;;;;;;;18.42;8.63;;;486.50;1792.00;;;;;;4837423;29;20090;-71
2024/02/10 08:50:53;;;;;;;14.02;8.00;;;486.60;1792.00;;;;;;4837666;29;20101;-71
2024/02/10 08:53:20;;;;;;;9.15;4.07;;;486.80;1766.40;;;;;;4837316;29;20464;-71
2024/02/10 08:55:46;;;;;;;13.68;6.97;;;486.80;1766.40;;;;;;4837932;29;20082;-71
2024/02/10 08:58:13;;;;;;;11.82;4.93;;;486.60;1766.40;;;;;;4837235;29;20434;-72
2024/02/10 09:00:39;;;;;;;13.38;3.85;;;486.40;1766.40;;;;;;4838011;29;20090;-71
2024/02/10 09:03:06;;;;;;;9.30;3.95;;;486.40;1766.40;;;;;;4829159;29;20085;-75
2024/02/10 09:05:32;;;;;;;81.97;54.92;;;486.70;1740.80;;;;;;4837288;29;20026;-75
2024/02/10 09:07:58;;;;;;;13.07;7.03;;;486.70;1740.80;;;;;;4834488;29;20485;-76
2024/02/10 09:10:23;;;;;;;10.88;8.05;;;486.80;1740.80;;;;;;4837762;29;20481;-71
2024/02/10 09:12:49;;;;;;;24.77;20.98;;;486.80;1715.20;;;;;;4828308;29;20386;-71
2024/02/10 09:15:15;;;;;;;13.45;6.63;;;486.80;1715.20;;;;;;4823883;29;20478;-71
2024/02/10 09:17:41;;;;;;;11.00;4.97;;;486.80;1715.20;;;;;;4828230;29;20708;-71
2024/02/10 09:20:12;;;;;;;48.78;29.58;;;486.80;1740.80;;;;;;4832996;29;20063;-76
2024/02/10 09:22:38;;;;;;;33.63;21.25;;;486.90;1715.20;;;;;;4835893;29;20075;-71
2024/02/10 09:25:05;;;;;;;131.40;36.45;;;487.00;1715.20;;;;;;4842746;29;20062;-75
2024/02/10 09:27:30;;;;;;;15.55;7.95;;;487.00;1689.60;;;;;;4840676;29;20510;-73
2024/02/10 09:29:57;;;;;;;14.75;9.88;;;487.10;1689.60;;;;;;4835539;29;20072;-78
2024/02/10 09:32:24;;;;;;;13.25;7.63;;;487.30;1689.60;;;;;;4835701;29;20029;-82
2024/02/10 09:34:52;;;;;;;20.27;9.02;;;487.20;1689.60;;;;;;4833189;29;20025;-81
2024/02/10 09:37:18;;;;;;;87.88;51.38;;;487.30;1689.60;;;;;;4841095;29;20022;-73
2024/02/10 09:39:44;;;;;;;33.03;17.63;;;487.10;1664.00;;;;;;4841614;29;20037;-83
2024/02/10 09:42:23;;;;;;;17.38;8.93;;;487.10;1689.60;;;;;;4841028;29;20030;-81
2024/02/10 09:44:49;;;;;;;34.55;24.75;;;487.00;1715.20;;;;;;4830075;29;20026;-71
2024/02/10 09:47:19;;;;;;;14.88;7.32;;;487.00;1689.60;;;;;;4841004;29;20042;-72
2024/02/10 09:49:45;;;;;;;51.70;32.70;;;487.10;1715.20;;;;;;4841046;29;20029;-74
2024/02/10 09:52:11;;;;;;;22.45;13.80;;;487.00;1689.60;;;;;;4840612;29;20034;-75
2024/02/10 09:54:39;;;;;;;59.97;39.00;;;487.10;1689.60;;;;;;4839734;29;20062;-73
2024/02/10 09:57:11;;;;;;;41.38;22.20;;;487.00;1689.60;;;;;;4839791;29;20129;-71
2024/02/10 09:59:39;;;;;;;11.05;5.53;;;487.10;1689.60;;;;;;4840972;29;20039;-71
2024/02/10 10:02:08;;;;;;;51.08;32.10;;;487.00;1715.20;;;;;;4833768;29;20377;-71
2024/02/10 10:04:35;;;;;;;39.97;20.42;;;487.10;1689.60;;;;;;4828830;29;20060;-71
2024/02/10 10:07:01;;;;;;;90.75;61.00;;;487.10;1715.20;;;;;;4832654;29;20079;-72
2024/02/10 10:09:29;;;;;;;55.20;24.98;;;487.20;1689.60;;;;;;4840649;29;20038;-72
2024/02/10 10:11:55;;;;;;;30.58;18.30;;;487.10;1689.60;;;;;;4840779;29;20022;-71
2024/02/10 10:14:21;;;;;;;40.85;24.52;;;487.20;1689.60;;;;;;4840621;29;20037;-82
2024/02/10 10:16:57;;;;;;;46.08;25.88;;;487.30;1689.60;;;;;;4837208;29;20055;-82
2024/02/10 10:19:27;;;;;;;34.22;17.48;;;512.00;1689.60;;;;;;4837258;29;20477;-83
2024/02/10 10:21:56;;;;;;;40.22;21.20;;;512.10;1689.60;;;;;;4835729;29;20031;-83
2024/02/10 10:24:23;;;;;;;282.58;155.73;;;512.20;1689.60;;;;;;4824283;29;20114;-81
2024/02/10 10:26:51;;;;;;;21.05;10.63;;;512.60;1664.00;;;;;;4837570;29;20029;-82
2024/02/10 10:29:19;;;;;;;38.83;19.83;;;512.30;1689.60;;;;;;4840169;29;20034;-71
2024/02/10 10:31:48;;;;;;;31.70;17.90;;;512.40;1689.60;;;;;;4840377;29;20022;-72
2024/02/10 10:34:18;;;;;;;14.07;6.70;;;512.50;1664.00;;;;;;4840735;29;20041;-71
2024/02/10 10:36:48;;;;;;;20.40;11.40;;;512.30;1664.00;;;;;;4840328;29;20025;-72
2024/02/10 10:39:14;;;;;;;117.68;71.10;;;512.40;1664.00;;;;;;4840312;29;20109;-72
2024/02/10 10:41:44;;;;;;;91.40;49.83;;;512.70;1638.40;;;;;;4839822;29;20037;-71
2024/02/10 10:44:12;;;;;;;37.70;21.60;;;512.70;1638.40;;;;;;4838869;29;20541;-77
2024/02/10 10:46:38;;;;;;;54.17;37.97;;;512.60;1612.80;;;;;;4841091;29;20038;-77
2024/02/10 10:49:04;;;;;;;21.70;8.30;;;512.40;1638.40;;;;;;4840388;29;20070;-82
2024/02/10 10:51:37;;;;;;;114.13;72.85;;;512.50;1638.40;;;;;;4840094;29;20116;-81
2024/02/10 10:54:07;;;;;;;11.05;5.40;;;512.40;1664.00;;;;;;4840037;29;20092;-82
2024/02/10 10:56:34;;;;;;;43.58;31.08;;;512.20;1664.00;;;;;;4840313;29;20077;-80
2024/02/10 10:59:04;;;;;;;66.97;43.97;;;512.40;1664.00;;;;;;4839612;29;20026;-80
2024/02/10 11:01:37;;;;;;;29.55;17.27;;;512.30;1664.00;;;;;;4839843;29;20025;-71
2024/02/10 11:04:03;;;;;;;30.15;16.52;;;512.30;1664.00;;;;;;4839939;29;20605;-71
2024/02/10 11:06:29;;;;;;;47.35;20.92;;;512.20;1689.60;;;;;;4839696;29;20109;-81
2024/02/10 11:08:55;;;;;;;52.60;31.45;;;512.20;1689.60;;;;;;4839661;29;20417;-72
2024/02/10 11:11:21;;;;;;;45.33;28.58;;;512.30;1664.00;;;;;;4839558;29;20065;-72
2024/02/10 11:13:47;;;;;;;32.58;18.98;;;512.70;1638.40;;;;;;4839697;29;20137;-72
2024/02/10 11:16:14;;;;;;;16.88;7.07;;;512.90;1638.40;;;;;;4839950;29;20094;-77
2024/02/10 11:18:43;;;;;;;21.60;10.77;;;512.90;1612.80;;;;;;4839414;29;20034;-83
2024/02/10 11:21:21;;;;;;;35.50;20.35;;;537.70;1664.00;;;;;;4839504;29;20106;-81
2024/02/10 11:24:15;;;;;;;23.70;12.88;;;537.90;1612.80;;;;;;4839270;29;20533;-74
2024/02/10 11:26:41;;;;;;;9.15;4.90;;;538.10;1612.80;;;;;;4839565;29;20022;-80
2024/02/10 11:29:20;;;;;;;15.38;6.63;;;538.10;1612.80;;;;;;4838938;29;20093;-74
2024/02/10 11:31:47;;;;;;;15.45;9.07;;;538.00;1612.80;;;;;;4842367;29;20030;-75
2024/02/10 11:34:14;;;;;;;19.98;10.18;;;538.00;1612.80;;;;;;4839281;29;20110;-72
2024/02/10 11:36:54;;;;;;;19.92;8.90;;;538.00;1638.40;;;;;;4839333;29;20055;-73
2024/02/10 11:39:24;;;;;;;19.70;11.75;;;537.80;1612.80;;;;;;4839102;29;20032;-72
2024/02/10 11:42:00;;;;;;;20.70;9.38;;;512.90;1587.20;;;;;;4834519;29;20034;-71
2024/02/10 11:44:28;;;;;;;15.90;6.93;;;512.90;1612.80;;;;;;4825725;29;20094;-74
2024/02/10 11:46:59;;;;;;;43.78;22.35;;;512.80;1612.80;;;;;;4826280;29;20027;-81
2024/02/10 11:49:25;;;;;;;48.05;31.05;;;512.60;1638.40;;;;;;4851171;29;20036;-79
2024/02/10 11:51:53;;;;;;;48.83;30.63;;;512.60;1638.40;;;;;;4827285;29;20432;-81
2024/02/10 11:54:19;;;;;;;43.35;28.42;;;512.60;1638.40;;;;;;4832218;29;20077;-82
2024/02/10 11:56:50;;;;;;;39.70;20.60;;;512.70;1638.40;;;;;;4821877;29;20755;-80
2024/02/10 11:59:16;;;;;;;24.25;13.85;;;512.60;1638.40;;;;;;4804482;29;20387;-77
2024/02/10 12:01:42;;;;;;;12.18;6.00;;;512.50;1638.40;;;;;;4829097;29;20474;-79
2024/02/10 12:04:18;;;;;;;46.92;26.90;;;512.40;1638.40;;;;;;4838794;29;20036;-78
2024/02/10 12:06:48;;;;;;;128.25;68.25;;;512.40;1638.40;;;;;;4838882;29;20089;-82
2024/02/10 12:09:14;;;;;;;130.38;69.70;;;512.40;1638.40;;;;;;4838884;29;20038;-77
2024/02/10 12:11:40;;;;;;;18.75;6.50;;;512.20;1638.40;;;;;;4838712;29;20030;-79
2024/02/10 12:14:13;;;;;;;154.43;88.85;;;487.30;1664.00;;;;;;4838932;29;20095;-82